Time;durP1;ratioP1;P1;durP2;ratioP2;P2;SDS_P1;SDS_P2;PMS_P1;PMS_P2;Temp;Humidity;BMP_temperature;BMP_pressure;BME280_temperature;BME280_humidity;BME280_pressure;Samples;Min_cycle;Max_cycle;Signal;HPM_P1;HPM_P2
2023/06/02 00:00:10;;;;;;;11.33;3.67;;;11.40;99.90;;;;;;4976269;28;20446;-79
2023/06/02 00:02:41;;;;;;;10.53;4.17;;;11.40;99.90;;;;;;4981922;28;20454;-80
2023/06/02 00:05:10;;;;;;;10.47;4.20;;;11.40;99.90;;;;;;4981600;28;20442;-79
2023/06/02 00:07:38;;;;;;;12.50;5.27;;;11.40;99.90;;;;;;4983816;28;20464;-80
2023/06/02 00:10:07;;;;;;;11.60;6.23;;;11.30;99.90;;;;;;4983173;28;20470;-79
2023/06/02 00:12:35;;;;;;;17.90;5.50;;;11.40;99.90;;;;;;4982734;28;20525;-80
2023/06/02 00:15:04;;;;;;;13.17;4.97;;;11.30;99.90;;;;;;4981459;28;20493;-80
2023/06/02 00:17:34;;;;;;;13.00;4.97;;;11.30;99.90;;;;;;4981616;28;20560;-79
2023/06/02 00:20:05;;;;;;;13.07;4.60;;;11.30;99.90;;;;;;4983413;28;20493;-80
2023/06/02 00:22:37;;;;;;;18.87;4.93;;;11.30;99.90;;;;;;4981951;28;20449;-79
2023/06/02 00:25:06;;;;;;;13.70;4.80;;;11.30;99.90;;;;;;4981457;28;20458;-80
2023/06/02 00:27:34;;;;;;;14.13;5.00;;;11.30;99.90;;;;;;4982726;28;20500;-80
2023/06/02 00:30:03;;;;;;;11.50;4.43;;;11.30;99.90;;;;;;4981422;28;20516;-80
2023/06/02 00:32:31;;;;;;;10.10;5.10;;;11.30;99.90;;;;;;4981630;28;20457;-80
2023/06/02 00:35:00;;;;;;;12.33;5.63;;;11.30;99.90;;;;;;4979789;28;20529;-80
2023/06/02 00:37:29;;;;;;;12.23;5.50;;;11.30;99.90;;;;;;4981895;28;20462;-80
2023/06/02 00:39:57;;;;;;;15.10;5.00;;;11.30;99.90;;;;;;4982076;28;20473;-81
2023/06/02 00:42:25;;;;;;;12.37;5.27;;;11.30;99.90;;;;;;4979511;28;20979;-79
2023/06/02 00:44:53;;;;;;;12.83;4.77;;;11.30;99.90;;;;;;4982002;28;20473;-80
2023/06/02 00:47:22;;;;;;;16.77;5.40;;;11.30;99.90;;;;;;4979898;28;20513;-79
2023/06/02 00:49:50;;;;;;;13.10;4.80;;;11.30;99.90;;;;;;4980368;28;20550;-80
2023/06/02 00:52:20;;;;;;;11.27;5.30;;;11.30;99.90;;;;;;4980534;28;20985;-79
2023/06/02 00:54:48;;;;;;;13.43;4.73;;;11.30;99.90;;;;;;4980789;28;21074;-80
2023/06/02 00:57:16;;;;;;;13.97;4.80;;;11.30;99.90;;;;;;4979717;28;21017;-79
2023/06/02 00:59:45;;;;;;;13.37;5.50;;;11.30;99.90;;;;;;4981350;28;20449;-79
2023/06/02 01:02:13;;;;;;;13.93;5.03;;;11.30;99.90;;;;;;4981280;28;20448;-80
2023/06/02 01:04:42;;;;;;;13.97;4.70;;;11.30;99.90;;;;;;4983170;28;20477;-79
2023/06/02 01:07:10;;;;;;;15.23;4.87;;;11.30;99.90;;;;;;4986038;28;20469;-79
2023/06/02 01:09:41;;;;;;;15.33;4.60;;;11.30;99.90;;;;;;4986180;28;20533;-80
2023/06/02 01:12:10;;;;;;;15.43;4.90;;;11.30;99.90;;;;;;4984713;28;20469;-79
2023/06/02 01:14:38;;;;;;;10.60;5.03;;;11.30;99.90;;;;;;4982476;28;20445;-80
2023/06/02 01:17:07;;;;;;;14.33;5.10;;;11.30;99.90;;;;;;4982479;28;20560;-81
2023/06/02 01:19:38;;;;;;;13.33;5.00;;;11.30;99.90;;;;;;4976490;28;20442;-78
2023/06/02 01:22:08;;;;;;;15.23;5.20;;;11.30;99.90;;;;;;4974467;28;20488;-78
2023/06/02 01:24:41;;;;;;;13.03;4.80;;;11.30;99.90;;;;;;4974527;28;20442;-79
2023/06/02 01:27:12;;;;;;;11.97;5.07;;;11.30;99.90;;;;;;4978689;28;20464;-79
2023/06/02 01:29:41;;;;;;;14.17;5.30;;;11.30;99.90;;;;;;4979836;28;20500;-79
2023/06/02 01:32:18;;;;;;;13.73;5.47;;;11.30;99.90;;;;;;4979563;28;20536;-79
2023/06/02 01:34:51;;;;;;;13.63;5.20;;;11.30;99.90;;;;;;4978859;28;20472;-80
2023/06/02 01:37:21;;;;;;;12.27;5.30;;;11.30;99.90;;;;;;4979318;28;21013;-79
2023/06/02 01:39:52;;;;;;;12.17;5.00;;;11.30;99.90;;;;;;4981019;28;20441;-79
2023/06/02 01:42:22;;;;;;;11.77;5.90;;;11.30;99.90;;;;;;4978611;28;20441;-79
2023/06/02 01:44:51;;;;;;;14.77;4.90;;;11.30;99.90;;;;;;4978290;28;20947;-79
2023/06/02 01:47:20;;;;;;;17.00;5.13;;;11.20;99.90;;;;;;4977198;28;20481;-79
2023/06/02 01:49:49;;;;;;;12.60;5.30;;;11.20;99.90;;;;;;4976960;28;21061;-79
2023/06/02 01:52:17;;;;;;;15.53;5.70;;;11.20;99.90;;;;;;4975979;28;20456;-79
2023/06/02 01:54:46;;;;;;;13.43;5.70;;;11.20;99.90;;;;;;4975177;28;20565;-79
2023/06/02 01:57:15;;;;;;;14.10;5.20;;;11.20;99.90;;;;;;4975855;28;20512;-79
2023/06/02 01:59:44;;;;;;;13.50;5.17;;;11.30;99.90;;;;;;4976678;28;20529;-79
2023/06/02 02:02:13;;;;;;;13.73;4.80;;;11.30;99.90;;;;;;4975947;28;20453;-79
2023/06/02 02:04:41;;;;;;;16.60;6.10;;;11.20;99.90;;;;;;4979205;28;20446;-79
2023/06/02 02:07:11;;;;;;;12.00;5.23;;;11.20;99.90;;;;;;4977636;28;20469;-79
2023/06/02 02:09:42;;;;;;;15.83;5.40;;;11.20;99.90;;;;;;4977744;28;21013;-79
2023/06/02 02:12:10;;;;;;;13.27;5.70;;;11.30;99.90;;;;;;4978106;28;20422;-79
2023/06/02 02:14:39;;;;;;;14.17;5.63;;;11.20;99.90;;;;;;4976739;28;20473;-79
2023/06/02 02:17:09;;;;;;;14.17;5.57;;;11.20;99.90;;;;;;4977799;28;21018;-79
2023/06/02 02:19:38;;;;;;;11.20;4.97;;;11.20;99.90;;;;;;4977672;28;20536;-79
2023/06/02 02:22:06;;;;;;;20.60;6.03;;;11.20;99.90;;;;;;4976874;28;20464;-79
2023/06/02 02:24:35;;;;;;;17.07;5.90;;;11.20;99.90;;;;;;4977776;28;20522;-79
2023/06/02 02:27:04;;;;;;;18.10;6.20;;;11.20;99.90;;;;;;4976380;28;20890;-79
2023/06/02 02:29:32;;;;;;;17.63;6.07;;;11.20;99.90;;;;;;4976690;28;20441;-79
2023/06/02 02:32:02;;;;;;;15.77;5.70;;;11.20;99.90;;;;;;4976006;28;20449;-79
2023/06/02 02:34:32;;;;;;;16.57;6.00;;;11.20;99.90;;;;;;4976874;28;20496;-79
2023/06/02 02:37:02;;;;;;;16.40;5.53;;;11.30;99.90;;;;;;4975566;28;20520;-79
2023/06/02 02:39:33;;;;;;;15.30;6.60;;;11.30;99.90;;;;;;4975497;28;20442;-79
2023/06/02 02:42:02;;;;;;;15.27;5.73;;;11.30;99.90;;;;;;4975535;28;20458;-79
2023/06/02 02:44:30;;;;;;;19.20;5.83;;;11.30;99.90;;;;;;4976169;28;20449;-79
2023/06/02 02:46:59;;;;;;;15.90;6.27;;;11.30;99.90;;;;;;4976558;28;20473;-79
2023/06/02 02:49:29;;;;;;;16.60;5.60;;;11.30;99.90;;;;;;4976418;28;20554;-79
2023/06/02 02:51:57;;;;;;;22.37;5.60;;;11.30;99.90;;;;;;4977060;28;20470;-79
2023/06/02 02:54:25;;;;;;;15.60;5.97;;;11.30;99.90;;;;;;4980627;28;20453;-78
2023/06/02 02:56:54;;;;;;;18.60;6.03;;;11.20;99.90;;;;;;4978728;28;20469;-78
2023/06/02 02:59:22;;;;;;;21.27;5.97;;;11.30;99.90;;;;;;4978989;28;20450;-79
2023/06/02 03:01:50;;;;;;;14.97;4.77;;;11.30;99.90;;;;;;4979657;28;20481;-79
2023/06/02 03:04:22;;;;;;;16.23;5.63;;;11.30;99.90;;;;;;4980453;28;20445;-79
2023/06/02 03:06:55;;;;;;;14.83;5.83;;;11.30;99.90;;;;;;4979862;28;20479;-79
2023/06/02 03:09:27;;;;;;;22.67;5.50;;;11.30;99.90;;;;;;4979558;28;20445;-79
2023/06/02 03:11:58;;;;;;;23.37;6.97;;;11.30;99.90;;;;;;4979727;28;20519;-78
2023/06/02 03:14:28;;;;;;;17.63;5.60;;;11.30;99.90;;;;;;4979652;28;20450;-79
2023/06/02 03:17:00;;;;;;;22.27;7.37;;;11.40;99.90;;;;;;4979175;28;20477;-79
2023/06/02 03:19:29;;;;;;;12.03;5.00;;;11.30;99.90;;;;;;4980699;28;20535;-79
2023/06/02 03:21:58;;;;;;;15.20;5.47;;;11.40;99.90;;;;;;4980169;28;20453;-79
2023/06/02 03:24:30;;;;;;;16.97;6.00;;;11.30;99.90;;;;;;4979449;28;20860;-78
2023/06/02 03:27:03;;;;;;;19.43;6.33;;;11.40;99.90;;;;;;4978525;28;20473;-79
2023/06/02 03:29:31;;;;;;;13.30;5.73;;;11.40;99.90;;;;;;4978183;28;20461;-78
2023/06/02 03:32:00;;;;;;;15.83;6.30;;;11.40;99.90;;;;;;4978063;28;20881;-79
2023/06/02 03:34:30;;;;;;;15.43;5.23;;;11.40;99.90;;;;;;4978740;28;20522;-78
2023/06/02 03:37:02;;;;;;;15.57;6.00;;;11.40;99.90;;;;;;4979211;28;20520;-79
2023/06/02 03:39:31;;;;;;;21.17;6.53;;;11.30;99.90;;;;;;4979663;28;20454;-79
2023/06/02 03:42:00;;;;;;;18.23;6.70;;;11.40;99.90;;;;;;4981542;28;20446;-79
2023/06/02 03:44:28;;;;;;;18.73;6.67;;;11.40;99.90;;;;;;4979480;28;20939;-79
2023/06/02 03:46:57;;;;;;;16.90;5.93;;;11.40;99.90;;;;;;4976864;28;20991;-79
2023/06/02 03:49:27;;;;;;;15.97;6.20;;;11.40;99.90;;;;;;4977537;28;20545;-78
2023/06/02 03:51:55;;;;;;;11.37;5.00;;;11.40;99.90;;;;;;4977874;28;20501;-79
2023/06/02 03:54:25;;;;;;;14.77;6.00;;;11.40;99.90;;;;;;4977101;28;20449;-79
2023/06/02 03:56:54;;;;;;;13.93;6.33;;;11.50;99.90;;;;;;4977308;28;20482;-78
2023/06/02 03:59:22;;;;;;;13.93;5.27;;;11.40;99.90;;;;;;4977171;28;20458;-79
2023/06/02 04:01:50;;;;;;;15.13;5.30;;;11.50;99.90;;;;;;4977787;28;21027;-79
2023/06/02 04:04:18;;;;;;;16.70;5.33;;;11.50;99.90;;;;;;4977292;28;20456;-78
2023/06/02 04:06:47;;;;;;;15.60;5.23;;;11.50;99.90;;;;;;4978139;28;20476;-79
2023/06/02 04:09:15;;;;;;;15.27;5.50;;;11.50;99.90;;;;;;4978688;28;21043;-79
2023/06/02 04:11:47;;;;;;;14.77;5.90;;;11.50;99.90;;;;;;4977575;28;20528;-79
2023/06/02 04:14:16;;;;;;;17.40;5.20;;;11.50;99.90;;;;;;4978145;28;20810;-79
2023/06/02 04:16:47;;;;;;;15.10;5.00;;;11.50;99.90;;;;;;4978211;28;20478;-79
2023/06/02 04:19:16;;;;;;;18.10;5.43;;;11.50;99.90;;;;;;4979001;28;20460;-79
2023/06/02 04:21:44;;;;;;;15.20;5.23;;;11.50;99.90;;;;;;4977403;28;20450;-78
2023/06/02 04:24:14;;;;;;;18.60;6.13;;;11.60;99.90;;;;;;4977186;28;20488;-79
2023/06/02 04:26:43;;;;;;;16.40;6.40;;;11.60;99.90;;;;;;4976257;28;20473;-79
2023/06/02 04:29:12;;;;;;;18.60;6.30;;;11.60;99.90;;;;;;4977024;28;20540;-79
2023/06/02 04:31:43;;;;;;;13.87;6.13;;;11.60;99.90;;;;;;4976557;28;20477;-79
2023/06/02 04:34:16;;;;;;;16.93;6.20;;;11.60;99.90;;;;;;4976900;28;20872;-79
2023/06/02 04:36:45;;;;;;;21.73;8.13;;;11.60;99.90;;;;;;4976660;28;20845;-78
2023/06/02 04:39:14;;;;;;;12.90;6.03;;;11.70;99.90;;;;;;4976310;28;20441;-79
2023/06/02 04:41:46;;;;;;;18.87;6.13;;;11.70;99.90;;;;;;4977235;28;20449;-79
2023/06/02 04:44:16;;;;;;;16.20;5.90;;;11.70;99.90;;;;;;4977610;28;20521;-79
2023/06/02 04:46:46;;;;;;;21.17;7.17;;;11.70;99.90;;;;;;4976858;28;20489;-79
2023/06/02 04:49:14;;;;;;;19.10;5.83;;;11.80;99.90;;;;;;4976406;28;20449;-79
2023/06/02 04:51:43;;;;;;;16.07;6.03;;;11.80;99.90;;;;;;4977066;28;20462;-79
2023/06/02 04:54:11;;;;;;;15.73;6.40;;;11.80;99.90;;;;;;4975913;28;20456;-79
2023/06/02 04:56:40;;;;;;;24.27;6.70;;;11.80;99.90;;;;;;4975700;28;20572;-79
2023/06/02 04:59:12;;;;;;;15.20;6.53;;;11.90;99.90;;;;;;4975179;28;20492;-79
2023/06/02 05:01:43;;;;;;;20.27;6.50;;;11.90;99.90;;;;;;4975993;28;20450;-79
2023/06/02 05:04:11;;;;;;;20.57;6.80;;;11.90;99.90;;;;;;4975048;28;20951;-79
2023/06/02 05:06:40;;;;;;;16.00;6.70;;;11.90;99.90;;;;;;4976460;28;20473;-79
2023/06/02 05:09:08;;;;;;;17.60;5.73;;;12.00;99.90;;;;;;4975221;28;20504;-78
2023/06/02 05:11:37;;;;;;;21.63;6.67;;;12.00;99.90;;;;;;4974613;28;20476;-79
2023/06/02 05:14:06;;;;;;;16.20;6.73;;;12.00;99.90;;;;;;4974848;28;20540;-79
2023/06/02 05:16:35;;;;;;;16.57;7.13;;;12.10;99.90;;;;;;4975757;28;20474;-79
2023/06/02 05:19:06;;;;;;;12.77;5.70;;;12.10;99.90;;;;;;4975513;28;20440;-79
2023/06/02 05:21:37;;;;;;;18.47;6.73;;;12.20;99.90;;;;;;4975818;28;20501;-79
2023/06/02 05:24:06;;;;;;;20.63;8.03;;;12.20;99.90;;;;;;4975210;28;20460;-78
2023/06/02 05:26:35;;;;;;;20.50;8.20;;;12.20;99.90;;;;;;4974665;28;20473;-79
2023/06/02 05:29:03;;;;;;;16.20;8.00;;;12.30;99.90;;;;;;4975042;28;20453;-78
2023/06/02 05:31:31;;;;;;;20.33;8.80;;;12.30;99.90;;;;;;4974419;28;20473;-78
2023/06/02 05:33:59;;;;;;;18.30;7.97;;;12.30;99.90;;;;;;4975064;28;20438;-79
2023/06/02 05:36:29;;;;;;;19.17;7.97;;;12.40;99.90;;;;;;4974500;28;20504;-78
2023/06/02 05:38:59;;;;;;;20.80;8.17;;;12.50;99.90;;;;;;4977814;28;20433;-79
2023/06/02 05:41:28;;;;;;;19.60;8.90;;;12.50;99.90;;;;;;4975414;28;20457;-79
2023/06/02 05:43:58;;;;;;;24.20;9.17;;;12.60;99.90;;;;;;4975751;28;20442;-78
2023/06/02 05:46:27;;;;;;;22.70;9.50;;;12.70;99.90;;;;;;4975176;28;20543;-78
2023/06/02 05:48:56;;;;;;;24.03;9.80;;;12.70;99.90;;;;;;4975380;28;20924;-79
2023/06/02 05:51:24;;;;;;;22.67;9.20;;;12.70;99.90;;;;;;4975224;28;20445;-79
2023/06/02 05:53:56;;;;;;;21.30;9.37;;;12.70;99.90;;;;;;4974271;28;21003;-78
2023/06/02 05:56:25;;;;;;;20.20;9.17;;;12.70;99.90;;;;;;4974390;28;20474;-78
2023/06/02 05:58:54;;;;;;;23.63;9.27;;;12.70;99.90;;;;;;4975674;28;20462;-79
2023/06/02 06:01:22;;;;;;;24.47;9.63;;;12.70;99.90;;;;;;4974570;28;20509;-78
2023/06/02 06:03:51;;;;;;;25.60;9.47;;;12.70;99.90;;;;;;4973372;28;20982;-77
2023/06/02 06:06:19;;;;;;;25.33;10.60;;;12.80;99.90;;;;;;4974329;28;20513;-78
2023/06/02 06:08:47;;;;;;;27.47;10.00;;;12.80;99.90;;;;;;4974289;28;20794;-78
2023/06/02 06:11:17;;;;;;;22.90;9.27;;;12.90;99.90;;;;;;4981484;28;20476;-78
2023/06/02 06:13:46;;;;;;;17.27;9.70;;;13.00;99.90;;;;;;4976832;28;20543;-79
2023/06/02 06:16:14;;;;;;;19.83;9.60;;;13.30;99.90;;;;;;4975162;28;20480;-78
2023/06/02 06:18:44;;;;;;;21.50;9.60;;;13.50;99.90;;;;;;4975921;28;20453;-79
2023/06/02 06:21:12;;;;;;;19.63;9.53;;;13.70;99.90;;;;;;4975543;28;20453;-78
2023/06/02 06:23:40;;;;;;;18.50;9.30;;;13.80;99.90;;;;;;4975959;28;20959;-78
2023/06/02 06:26:09;;;;;;;23.57;9.70;;;13.80;99.90;;;;;;4974968;28;20478;-78
2023/06/02 06:28:43;;;;;;;21.00;9.30;;;13.80;99.90;;;;;;4974957;28;20420;-78
2023/06/02 06:31:13;;;;;;;24.67;10.50;;;13.90;99.90;;;;;;4974828;28;20449;-79
2023/06/02 06:33:41;;;;;;;20.67;9.03;;;13.90;99.90;;;;;;4975749;28;20473;-78
2023/06/02 06:36:11;;;;;;;22.60;9.70;;;14.10;99.90;;;;;;4979786;28;21079;-78
2023/06/02 06:38:41;;;;;;;20.07;9.87;;;14.20;99.90;;;;;;4979686;28;20484;-78
2023/06/02 06:41:09;;;;;;;17.27;8.97;;;14.40;99.90;;;;;;4978907;28;20541;-78
2023/06/02 06:43:40;;;;;;;24.17;9.60;;;14.60;99.90;;;;;;4980332;28;20438;-78
2023/06/02 06:46:15;;;;;;;24.17;8.80;;;14.80;99.90;;;;;;4979587;28;20535;-78
2023/06/02 06:48:44;;;;;;;19.87;8.53;;;14.90;99.90;;;;;;4978199;28;21094;-78
2023/06/02 06:51:13;;;;;;;20.87;9.70;;;15.00;99.90;;;;;;4981133;28;20492;-78
2023/06/02 06:53:41;;;;;;;22.30;9.27;;;15.10;99.90;;;;;;4980413;28;20469;-78
2023/06/02 06:56:10;;;;;;;19.93;8.83;;;15.20;99.90;;;;;;4979151;28;20481;-78
2023/06/02 06:58:40;;;;;;;20.40;9.13;;;15.30;99.90;;;;;;4979507;28;20424;-78
2023/06/02 07:01:08;;;;;;;24.20;9.40;;;15.30;99.90;;;;;;4979527;28;20480;-78
2023/06/02 07:03:36;;;;;;;18.03;9.77;;;15.30;99.90;;;;;;4979664;28;20424;-79
2023/06/02 07:06:05;;;;;;;21.70;9.03;;;15.40;99.90;;;;;;4979225;28;20473;-80
2023/06/02 07:08:36;;;;;;;17.63;8.97;;;15.40;99.90;;;;;;4981233;28;20517;-79
2023/06/02 07:11:04;;;;;;;24.67;10.43;;;15.50;99.90;;;;;;4980073;28;20543;-80
2023/06/02 07:13:32;;;;;;;22.37;9.70;;;15.50;99.90;;;;;;4981255;28;20536;-79
2023/06/02 07:16:02;;;;;;;19.63;8.27;;;15.40;99.90;;;;;;4981018;28;20862;-80
2023/06/02 07:18:31;;;;;;;22.03;9.20;;;15.40;99.90;;;;;;4980281;28;20450;-80
2023/06/02 07:20:59;;;;;;;17.73;8.53;;;15.40;99.90;;;;;;4980600;28;20446;-79
2023/06/02 07:23:27;;;;;;;14.83;7.30;;;15.50;99.90;;;;;;4980300;28;20814;-78
2023/06/02 07:25:56;;;;;;;14.30;8.00;;;15.60;99.90;;;;;;4980228;28;20497;-79
2023/06/02 07:28:24;;;;;;;19.27;9.40;;;15.60;99.90;;;;;;4981997;28;20863;-79
2023/06/02 07:31:08;;;;;;;18.00;8.03;;;15.70;99.90;;;;;;4978587;28;20424;-79
2023/06/02 07:33:56;;;;;;;13.60;7.37;;;15.70;99.90;;;;;;4979709;28;20530;-80
2023/06/02 07:36:25;;;;;;;14.77;7.70;;;15.70;99.90;;;;;;4980296;28;20448;-79
2023/06/02 07:38:53;;;;;;;15.03;7.57;;;15.80;99.90;;;;;;4980410;28;20462;-79
2023/06/02 07:41:21;;;;;;;15.07;6.90;;;15.80;99.90;;;;;;4980521;28;20447;-80
2023/06/02 07:43:50;;;;;;;13.30;6.77;;;15.90;99.90;;;;;;4980661;28;20500;-78
2023/06/02 07:46:19;;;;;;;18.73;5.80;;;16.10;99.90;;;;;;4980941;28;20899;-78
2023/06/02 07:48:48;;;;;;;19.03;6.13;;;16.30;99.90;;;;;;4984865;28;20784;-79
2023/06/02 07:51:16;;;;;;;17.03;5.40;;;16.50;99.90;;;;;;4981800;28;20445;-78
2023/06/02 07:53:44;;;;;;;12.07;5.00;;;16.60;99.90;;;;;;4983333;28;20856;-79
2023/06/02 07:56:12;;;;;;;13.77;5.53;;;16.70;99.90;;;;;;4982992;28;20518;-77
2023/06/02 07:58:40;;;;;;;14.70;6.67;;;16.70;99.90;;;;;;4981857;28;20964;-78
2023/06/02 08:01:08;;;;;;;12.60;5.63;;;16.80;99.90;;;;;;4985106;28;20420;-79
2023/06/02 08:03:39;;;;;;;14.40;5.90;;;16.90;99.90;;;;;;4984940;28;20428;-80
2023/06/02 08:06:08;;;;;;;12.33;4.40;;;17.00;99.90;;;;;;4984402;28;20531;-80
2023/06/02 08:08:36;;;;;;;11.27;5.07;;;17.00;99.90;;;;;;4985322;28;20429;-80
2023/06/02 08:11:06;;;;;;;8.73;3.63;;;17.20;99.90;;;;;;4983799;28;20420;-80
2023/06/02 08:13:34;;;;;;;10.77;4.77;;;17.20;99.90;;;;;;4983811;28;20532;-79
2023/06/02 08:16:03;;;;;;;8.67;3.80;;;17.40;99.90;;;;;;4985637;28;20461;-79
2023/06/02 08:18:52;;;;;;;10.70;4.60;;;17.50;99.90;;;;;;4985019;28;20763;-79
2023/06/02 08:21:21;;;;;;;10.13;4.43;;;17.50;99.90;;;;;;4984216;28;20460;-80
2023/06/02 08:23:50;;;;;;;12.87;5.77;;;17.60;99.90;;;;;;4983079;28;20473;-79
2023/06/02 08:26:19;;;;;;;13.83;5.27;;;17.60;99.90;;;;;;4984845;28;20463;-79
2023/06/02 08:28:49;;;;;;;10.83;4.50;;;17.60;99.90;;;;;;4982773;28;20424;-81
2023/06/02 08:31:20;;;;;;;12.10;4.63;;;17.70;99.90;;;;;;4983246;28;20734;-80
2023/06/02 08:33:52;;;;;;;10.17;3.53;;;17.80;99.90;;;;;;4983771;28;20603;-81
2023/06/02 08:36:21;;;;;;;6.53;2.60;;;17.80;99.90;;;;;;4983900;28;20474;-81
2023/06/02 08:38:51;;;;;;;10.57;3.30;;;17.90;99.90;;;;;;4984902;28;20440;-81
2023/06/02 08:41:20;;;;;;;8.50;2.80;;;18.00;99.90;;;;;;4983151;28;20449;-80
2023/06/02 08:43:48;;;;;;;11.23;2.50;;;18.10;99.90;;;;;;4983553;28;20951;-78
2023/06/02 08:46:17;;;;;;;8.87;2.63;;;18.20;99.90;;;;;;4983295;28;20476;-80
2023/06/02 08:48:46;;;;;;;7.10;2.90;;;18.30;99.90;;;;;;4985018;28;20767;-80
2023/06/02 08:51:21;;;;;;;8.50;2.63;;;18.40;99.90;;;;;;4982627;28;20460;-81
2023/06/02 08:53:51;;;;;;;11.57;3.03;;;18.40;99.90;;;;;;4982758;28;20563;-80
2023/06/02 08:56:19;;;;;;;7.47;2.90;;;18.50;99.90;;;;;;4981670;28;20477;-80
2023/06/02 08:58:48;;;;;;;6.80;2.30;;;18.60;99.90;;;;;;4984758;28;20442;-82
2023/06/02 09:01:16;;;;;;;5.73;2.47;;;18.60;99.90;;;;;;4984063;28;20436;-80
2023/06/02 09:03:47;;;;;;;9.93;3.10;;;18.60;99.90;;;;;;4981358;28;20967;-79
2023/06/02 09:06:21;;;;;;;9.17;3.20;;;18.50;99.90;;;;;;4983031;28;20458;-80
2023/06/02 09:08:54;;;;;;;7.90;3.23;;;18.50;99.90;;;;;;4979898;28;20426;-80
2023/06/02 09:11:23;;;;;;;11.60;4.07;;;18.50;99.90;;;;;;4979702;28;20445;-79
2023/06/02 09:13:51;;;;;;;10.03;4.90;;;18.50;99.90;;;;;;4978610;28;20492;-79
2023/06/02 09:16:20;;;;;;;15.07;7.63;;;18.70;99.90;;;;;;4978711;28;20468;-79
2023/06/02 09:18:57;;;;;;;14.23;5.60;;;18.80;99.90;;;;;;4980460;28;20477;-80
2023/06/02 09:21:27;;;;;;;12.73;4.47;;;19.00;99.90;;;;;;4979702;28;20819;-80
2023/06/02 09:23:58;;;;;;;14.63;5.40;;;19.00;99.90;;;;;;4978836;28;20442;-80
2023/06/02 09:26:49;;;;;;;10.20;5.50;;;19.00;99.90;;;;;;4986463;28;20524;-80
2023/06/02 09:29:18;;;;;;;7.80;4.00;;;18.90;99.90;;;;;;4982119;28;20927;-79
2023/06/02 09:31:51;;;;;;;9.50;3.30;;;18.80;99.90;;;;;;4981170;28;20454;-79
2023/06/02 09:34:21;;;;;;;11.20;3.00;;;18.80;99.90;;;;;;4980481;28;20469;-80
2023/06/02 09:36:50;;;;;;;6.90;3.70;;;18.90;99.90;;;;;;4981494;28;20469;-79
2023/06/02 09:39:33;;;;;;;7.43;2.83;;;18.90;99.90;;;;;;4980526;28;20952;-80
2023/06/02 09:42:02;;;;;;;7.27;3.00;;;19.10;99.90;;;;;;4978500;28;20457;-80
2023/06/02 09:44:30;;;;;;;7.30;2.87;;;19.20;99.90;;;;;;4979200;28;20537;-80
2023/06/02 09:46:59;;;;;;;6.30;2.33;;;19.30;99.90;;;;;;4979636;28;20501;-80
2023/06/02 09:49:39;;;;;;;8.53;3.83;;;19.40;99.90;;;;;;4979594;28;20433;-80
2023/06/02 09:52:15;;;;;;;5.90;3.10;;;19.50;99.90;;;;;;4979311;28;20481;-79
2023/06/02 09:54:46;;;;;;;5.73;2.57;;;19.50;99.90;;;;;;4978258;28;20466;-80
2023/06/02 09:57:16;;;;;;;7.03;3.57;;;19.60;99.90;;;;;;4979054;28;20478;-80
2023/06/02 09:59:45;;;;;;;8.70;3.50;;;19.70;99.90;;;;;;4979762;28;20484;-80
2023/06/02 10:02:14;;;;;;;7.27;3.80;;;19.80;99.90;;;;;;4978901;28;20807;-80
2023/06/02 10:04:42;;;;;;;10.10;3.00;;;19.90;99.90;;;;;;4980019;28;20457;-80
2023/06/02 10:07:26;;;;;;;10.83;3.80;;;19.80;99.90;;;;;;4979249;28;21066;-80
2023/06/02 10:10:16;;;;;;;10.80;4.30;;;19.80;99.90;;;;;;4983180;28;20487;-80
2023/06/02 10:12:57;;;;;;;9.10;4.27;;;19.80;99.90;;;;;;4981859;28;20485;-80
2023/06/02 10:15:54;;;;;;;8.07;3.83;;;19.70;99.90;;;;;;4984322;28;20536;-80
2023/06/02 10:18:37;;;;;;;8.43;3.53;;;19.70;99.90;;;;;;4983178;28;20484;-80
2023/06/02 10:21:11;;;;;;;9.53;4.30;;;19.70;99.90;;;;;;4982968;28;20492;-80
2023/06/02 10:23:49;;;;;;;7.73;3.50;;;19.80;99.90;;;;;;4983087;28;20446;-80
2023/06/02 10:26:34;;;;;;;7.80;4.23;;;19.80;99.90;;;;;;4984503;28;20500;-80
2023/06/02 10:29:04;;;;;;;7.57;4.27;;;19.80;99.90;;;;;;4982528;28;20441;-80
2023/06/02 10:31:33;;;;;;;8.37;4.10;;;19.70;99.90;;;;;;4982705;28;20480;-79
2023/06/02 10:34:01;;;;;;;7.77;4.10;;;19.70;99.90;;;;;;4984211;28;20512;-80
2023/06/02 10:37:10;;;;;;;11.03;5.30;;;19.70;99.90;;;;;;4983580;28;20540;-80
2023/06/02 10:39:52;;;;;;;8.67;4.23;;;19.70;99.90;;;;;;4984505;28;20450;-80
2023/06/02 10:42:23;;;;;;;11.83;4.27;;;19.70;99.90;;;;;;4981970;28;20496;-80
2023/06/02 10:44:53;;;;;;;8.03;4.13;;;19.70;99.90;;;;;;4984124;28;20472;-80
2023/06/02 10:47:36;;;;;;;8.17;4.40;;;19.70;99.90;;;;;;4984302;28;20473;-79
2023/06/02 10:50:09;;;;;;;7.87;3.90;;;19.60;99.90;;;;;;4983093;28;20446;-80
2023/06/02 10:53:12;;;;;;;8.97;4.63;;;19.60;99.90;;;;;;4984233;28;20425;-80
2023/06/02 10:55:42;;;;;;;8.73;4.50;;;19.60;99.90;;;;;;4938369;28;20481;-80
2023/06/02 10:58:12;;;;;;;8.30;4.30;;;19.60;99.90;;;;;;4980303;28;20966;-80
2023/06/02 11:00:46;;;;;;;8.23;4.33;;;19.60;99.90;;;;;;4980524;28;20489;-80
2023/06/02 11:03:31;;;;;;;8.70;4.10;;;19.60;99.90;;;;;;4983831;28;20469;-80
2023/06/02 11:06:27;;;;;;;9.00;4.30;;;19.60;99.90;;;;;;4986074;28;21005;-80
2023/06/02 11:09:15;;;;;;;6.90;4.27;;;19.70;99.90;;;;;;4929602;28;20453;-80
2023/06/02 11:11:54;;;;;;;8.40;5.07;;;19.80;99.90;;;;;;4983292;28;20525;-79
2023/06/02 11:14:23;;;;;;;8.70;4.90;;;19.90;99.90;;;;;;4986280;28;20422;-79
2023/06/02 11:17:35;;;;;;;8.00;3.70;;;19.80;99.90;;;;;;4984998;28;20556;-80
2023/06/02 11:20:05;;;;;;;7.77;4.70;;;19.90;99.90;;;;;;4965995;28;20469;-79
2023/06/02 11:22:33;;;;;;;8.33;4.30;;;19.90;99.90;;;;;;4984055;28;20470;-80
2023/06/02 11:25:02;;;;;;;8.17;4.17;;;19.90;99.90;;;;;;4984068;28;20553;-80
2023/06/02 11:27:40;;;;;;;7.00;4.43;;;20.00;99.90;;;;;;4983000;28;20457;-79
2023/06/02 11:30:13;;;;;;;8.27;5.33;;;20.10;99.90;;;;;;4983733;28;20840;-80
2023/06/02 11:32:42;;;;;;;7.07;4.57;;;20.10;99.90;;;;;;4982936;28;20500;-79
2023/06/02 11:35:11;;;;;;;9.20;5.13;;;20.20;99.90;;;;;;4981611;28;20524;-80
2023/06/02 11:37:42;;;;;;;11.33;5.20;;;20.20;99.90;;;;;;4979477;28;20465;-79
2023/06/02 11:40:12;;;;;;;8.30;5.17;;;20.20;99.90;;;;;;4976721;28;20457;-79
2023/06/02 11:42:42;;;;;;;9.30;5.37;;;20.20;99.90;;;;;;4978154;28;20430;-80
2023/06/02 11:45:22;;;;;;;9.07;5.30;;;20.20;99.90;;;;;;4977715;28;21002;-79
2023/06/02 11:47:58;;;;;;;10.80;5.50;;;20.20;99.90;;;;;;4980187;28;20483;-79
2023/06/02 11:50:26;;;;;;;8.50;5.17;;;20.20;99.90;;;;;;4983745;28;20453;-79
2023/06/02 11:52:55;;;;;;;7.83;5.93;;;20.20;99.90;;;;;;4982488;28;20442;-80
2023/06/02 11:55:27;;;;;;;10.00;4.97;;;20.20;99.90;;;;;;4981609;28;20473;-80
2023/06/02 11:58:19;;;;;;;10.67;5.10;;;20.20;99.90;;;;;;4982534;28;20472;-80
2023/06/02 12:00:49;;;;;;;8.43;5.17;;;20.30;99.90;;;;;;4990311;28;20473;-79
2023/06/02 12:03:17;;;;;;;14.43;5.90;;;20.30;99.90;;;;;;4997553;28;20490;-80
2023/06/02 12:05:47;;;;;;;8.80;4.83;;;20.30;99.90;;;;;;4997490;28;20434;-80
2023/06/02 12:08:20;;;;;;;8.17;4.87;;;20.30;99.90;;;;;;4993306;28;20469;-81
2023/06/02 12:10:49;;;;;;;7.80;4.83;;;20.30;99.90;;;;;;4996267;28;20490;-79
2023/06/02 12:13:24;;;;;;;8.10;5.50;;;20.30;99.90;;;;;;4992225;28;20533;-80
2023/06/02 12:15:55;;;;;;;8.23;4.83;;;20.30;99.90;;;;;;4985845;28;20484;-79
2023/06/02 12:18:30;;;;;;;8.50;5.40;;;20.20;99.90;;;;;;4985257;28;20430;-79
2023/06/02 12:20:59;;;;;;;10.50;4.80;;;20.30;99.90;;;;;;4982535;28;20453;-79
2023/06/02 12:23:44;;;;;;;15.23;5.87;;;20.20;99.90;;;;;;4982744;28;20975;-80
2023/06/02 12:26:12;;;;;;;12.40;5.70;;;20.20;99.90;;;;;;4979691;28;20462;-79
2023/06/02 12:28:40;;;;;;;8.83;5.67;;;20.20;99.90;;;;;;4981743;28;20479;-80
2023/06/02 12:31:10;;;;;;;8.60;5.60;;;20.20;99.90;;;;;;4980298;28;20871;-79
2023/06/02 12:33:40;;;;;;;9.80;5.73;;;20.10;99.90;;;;;;4981595;28;20876;-80
2023/06/02 12:36:10;;;;;;;10.73;5.83;;;20.10;99.90;;;;;;4983973;28;20489;-80
2023/06/02 12:38:38;;;;;;;9.37;5.93;;;20.00;99.90;;;;;;4982495;28;20484;-80
2023/06/02 12:41:10;;;;;;;10.80;5.63;;;19.90;99.90;;;;;;4988296;28;20556;-80
2023/06/02 12:43:40;;;;;;;8.83;5.67;;;19.90;99.90;;;;;;4983182;28;20884;-80
2023/06/02 12:46:11;;;;;;;11.73;5.80;;;19.90;99.90;;;;;;4982523;28;20489;-81
2023/06/02 12:48:40;;;;;;;9.33;5.90;;;19.80;99.90;;;;;;4980983;28;20445;-80
2023/06/02 12:51:08;;;;;;;8.97;5.67;;;19.80;99.90;;;;;;4981010;28;20836;-80
2023/06/02 12:53:45;;;;;;;10.40;6.07;;;19.80;99.90;;;;;;5137933;27;20868;-82
2023/06/02 12:56:14;;;;;;;8.53;4.90;;;19.80;99.90;;;;;;5121011;28;20479;-81